Time;durP1;ratioP1;P1;durP2;ratioP2;P2;SDS_P1;SDS_P2;PMS_P1;PMS_P2;Temp;Humidity;BMP_temperature;BMP_pressure;BME280_temperature;BME280_humidity;BME280_pressure;Samples;Min_cycle;Max_cycle;Signal;HPM_P1;HPM_P2
2022/11/04 00:00:13;;;;;;;11.55;2.45;;;10.50;69.60;;;;;;4184309;28;20129;-89
2022/11/04 00:02:13;;;;;;;11.23;2.53;;;10.40;69.50;;;;;;4186177;28;20033;-88
2022/11/04 00:04:17;;;;;;;10.30;2.15;;;10.50;69.60;;;;;;4186596;28;20055;-88
2022/11/04 00:06:18;;;;;;;9.52;2.58;;;10.50;69.70;;;;;;4190806;28;20035;-88
2022/11/04 00:08:24;;;;;;;6.05;2.00;;;10.50;69.70;;;;;;4187034;28;20092;-88
2022/11/04 00:12:23;;;;;;;6.30;2.03;;;10.40;69.70;;;;;;4185588;28;20032;-87
2022/11/04 00:12:46;;;;;;;5.75;2.03;;;10.50;69.80;;;;;;4185094;28;20025;-88
2022/11/04 00:14:47;;;;;;;7.25;2.10;;;10.40;69.80;;;;;;4172884;28;20051;-88
2022/11/04 00:19:07;;;;;;;7.75;2.33;;;10.40;69.90;;;;;;4185086;28;20029;-88
2022/11/04 00:30:32;;;;;;;7.93;2.20;;;10.40;70.00;;;;;;4182554;28;20078;-87
2022/11/04 00:34:59;;;;;;;7.80;2.10;;;10.40;70.90;;;;;;4183676;28;20030;-87
2022/11/04 00:37:07;;;;;;;7.60;2.17;;;10.50;70.00;;;;;;4181983;28;20029;-87
2022/11/04 00:39:28;;;;;;;10.95;2.70;;;10.40;70.00;;;;;;4195923;28;20024;-86
2022/11/04 00:41:29;;;;;;;8.18;2.28;;;10.40;70.10;;;;;;4201863;28;20020;-87
2022/11/04 00:43:30;;;;;;;10.00;2.58;;;10.40;70.10;;;;;;4185430;28;20037;-88
2022/11/04 00:45:31;;;;;;;6.00;1.80;;;10.40;70.20;;;;;;4188816;28;20143;-88
2022/11/04 00:47:51;;;;;;;7.85;2.10;;;10.40;70.30;;;;;;4181362;28;20095;-88
2022/11/04 00:50:12;;;;;;;9.07;1.98;;;10.60;70.40;;;;;;4183899;28;20028;-87
2022/11/04 00:52:12;;;;;;;6.18;2.08;;;10.50;70.30;;;;;;4185955;28;20052;-87
2022/11/04 00:54:33;;;;;;;9.15;2.28;;;10.40;70.30;;;;;;4183206;28;20037;-88
2022/11/04 00:56:54;;;;;;;8.55;1.92;;;10.50;70.40;;;;;;4181721;28;20040;-87
2022/11/04 00:59:15;;;;;;;6.13;1.85;;;10.40;70.40;;;;;;4184718;28;20036;-87
2022/11/04 01:01:35;;;;;;;8.57;2.10;;;10.40;70.50;;;;;;4183701;28;20148;-88
2022/11/04 01:03:56;;;;;;;9.98;1.98;;;10.40;70.40;;;;;;4181402;28;20040;-88
2022/11/04 01:06:18;;;;;;;8.95;2.35;;;10.40;70.40;;;;;;4183879;28;20032;-88
2022/11/04 01:08:39;;;;;;;9.55;2.20;;;10.60;70.60;;;;;;4184367;28;20071;-87
2022/11/04 01:11:02;;;;;;;10.90;2.65;;;10.50;70.50;;;;;;4183796;28;20032;-87
2022/11/04 01:13:22;;;;;;;5.50;1.80;;;10.40;70.50;;;;;;4180518;28;20028;-87
2022/11/04 01:15:43;;;;;;;8.73;2.28;;;10.40;70.50;;;;;;4188303;28;20032;-87
2022/11/04 01:18:04;;;;;;;5.38;2.03;;;10.60;70.60;;;;;;4185288;28;20055;-87
2022/11/04 01:20:25;;;;;;;7.65;2.10;;;10.50;70.50;;;;;;4186186;28;20093;-87
2022/11/04 01:22:46;;;;;;;8.60;2.33;;;10.50;70.60;;;;;;4183116;28;20037;-87
2022/11/04 01:25:07;;;;;;;5.70;2.28;;;10.50;70.60;;;;;;4188190;28;20048;-87
2022/11/04 01:27:28;;;;;;;8.77;2.25;;;10.50;70.70;;;;;;4184991;28;20048;-88
2022/11/04 01:29:49;;;;;;;6.78;2.20;;;10.50;70.70;;;;;;4181311;28;20031;-88
2022/11/04 01:31:49;;;;;;;11.07;3.05;;;10.50;70.70;;;;;;4185569;28;20036;-88
2022/11/04 01:33:51;;;;;;;5.10;1.80;;;10.40;70.80;;;;;;4168062;28;20021;-88
2022/11/04 01:35:52;;;;;;;5.32;2.25;;;10.50;70.90;;;;;;4203668;28;20048;-87
2022/11/04 01:37:53;;;;;;;8.48;2.55;;;10.50;71.00;;;;;;4181617;28;20443;-88
2022/11/04 01:39:53;;;;;;;9.32;2.25;;;10.50;71.00;;;;;;4188348;28;20449;-87
2022/11/04 01:41:54;;;;;;;6.55;2.40;;;10.50;71.10;;;;;;4184881;28;20075;-87
2022/11/04 01:44:41;;;;;;;7.07;2.38;;;10.50;71.10;;;;;;4181953;28;20096;-87
2022/11/04 01:46:48;;;;;;;9.05;2.70;;;10.50;71.20;;;;;;4187131;28;20072;-87
2022/11/04 01:48:50;;;;;;;7.53;2.25;;;10.50;71.10;;;;;;4185998;28;20059;-88
2022/11/04 01:50:53;;;;;;;10.90;2.57;;;10.50;71.10;;;;;;4188120;28;20106;-88
2022/11/04 01:53:00;;;;;;;8.38;2.30;;;10.50;71.10;;;;;;4177551;28;20115;-88
2022/11/04 01:55:07;;;;;;;5.78;2.22;;;10.50;71.20;;;;;;4184062;28;20020;-88
2022/11/04 01:57:14;;;;;;;5.38;1.90;;;10.50;72.10;;;;;;4192930;28;20143;-88
2022/11/04 01:59:25;;;;;;;6.40;2.25;;;10.50;71.40;;;;;;4179659;28;20040;-88
2022/11/04 02:01:26;;;;;;;6.90;2.58;;;10.50;71.50;;;;;;4165877;28;20025;-87
2022/11/04 02:03:39;;;;;;;6.05;2.08;;;10.50;71.50;;;;;;4179009;28;20097;-87
2022/11/04 02:05:40;;;;;;;6.35;2.17;;;10.50;71.80;;;;;;4170957;28;20021;-86
2022/11/04 02:07:41;;;;;;;6.13;2.50;;;10.50;71.60;;;;;;4187630;28;20028;-87
2022/11/04 02:09:43;;;;;;;5.30;2.17;;;10.50;71.80;;;;;;4203521;28;20089;-88
2022/11/04 02:14:04;;;;;;;7.40;2.55;;;10.50;71.70;;;;;;4165665;28;20064;-88
2022/11/04 02:16:26;;;;;;;7.90;2.70;;;10.50;71.80;;;;;;4186388;28;20412;-88
2022/11/04 02:18:42;;;;;;;8.23;2.53;;;10.50;71.90;;;;;;4168502;28;20054;-88
2022/11/04 02:21:04;;;;;;;16.85;2.92;;;10.50;71.90;;;;;;4169061;28;20079;-88
2022/11/04 02:23:42;;;;;;;8.77;2.60;;;10.50;72.10;;;;;;4189733;28;20025;-88
2022/11/04 02:26:10;;;;;;;5.70;2.22;;;10.40;72.10;;;;;;4191260;28;20274;-86
2022/11/04 02:28:26;;;;;;;7.80;2.42;;;10.50;72.30;;;;;;4190635;28;20041;-88
2022/11/04 02:30:35;;;;;;;8.70;2.35;;;10.50;72.10;;;;;;4173876;28;20052;-88
2022/11/04 02:32:41;;;;;;;8.98;2.65;;;10.50;72.10;;;;;;4187205;28;20131;-87
2022/11/04 02:35:00;;;;;;;6.45;2.42;;;10.50;72.30;;;;;;4188929;28;20074;-88
2022/11/04 02:37:19;;;;;;;5.85;2.35;;;10.50;72.50;;;;;;4188107;28;20033;-87
2022/11/04 02:39:37;;;;;;;4.95;2.30;;;10.50;72.60;;;;;;4190667;28;20116;-87
2022/11/04 02:41:44;;;;;;;11.30;2.75;;;10.50;73.30;;;;;;4183389;28;20032;-88
2022/11/04 02:44:01;;;;;;;6.38;2.22;;;10.50;72.60;;;;;;4193142;28;20033;-86
2022/11/04 02:46:11;;;;;;;7.78;2.50;;;10.50;72.80;;;;;;4175508;28;20473;-88
2022/11/04 02:48:40;;;;;;;5.55;2.53;;;10.60;72.90;;;;;;4184947;28;20566;-88
2022/11/04 02:50:49;;;;;;;8.05;2.50;;;10.40;73.30;;;;;;4185097;28;20100;-87
2022/11/04 02:52:58;;;;;;;7.95;2.33;;;10.50;73.00;;;;;;4185390;28;20107;-87
2022/11/04 02:55:05;;;;;;;5.00;2.35;;;10.50;73.20;;;;;;4189093;28;20103;-87
2022/11/04 02:57:12;;;;;;;8.43;2.58;;;10.50;73.20;;;;;;4184990;28;20027;-88
2022/11/04 02:59:24;;;;;;;9.25;2.85;;;10.60;73.40;;;;;;4200690;28;20066;-88
2022/11/04 03:01:31;;;;;;;10.50;2.92;;;10.40;74.00;;;;;;4183620;28;20029;-88
2022/11/04 03:03:37;;;;;;;12.02;2.92;;;10.60;73.50;;;;;;4172627;28;20394;-87
2022/11/04 03:05:41;;;;;;;6.65;2.63;;;10.40;73.50;;;;;;4180067;28;20564;-88
2022/11/04 03:07:44;;;;;;;10.23;3.00;;;10.40;73.60;;;;;;4187662;28;20028;-88
2022/11/04 03:09:50;;;;;;;6.50;2.75;;;10.40;73.70;;;;;;4162147;28;20385;-87
2022/11/04 03:11:56;;;;;;;8.40;2.75;;;10.40;73.80;;;;;;4183897;28;20099;-88
2022/11/04 03:14:02;;;;;;;8.32;2.80;;;10.50;73.90;;;;;;4197598;28;20024;-87
2022/11/04 03:16:10;;;;;;;7.20;3.20;;;10.40;74.00;;;;;;4183859;28;20025;-88
2022/11/04 03:18:32;;;;;;;9.57;2.90;;;10.30;74.00;;;;;;4169822;28;20068;-88
2022/11/04 03:20:37;;;;;;;9.02;2.90;;;10.40;74.50;;;;;;4187703;28;20033;-88
2022/11/04 03:22:38;;;;;;;7.93;3.38;;;10.40;74.20;;;;;;4186369;28;20098;-88
2022/11/04 03:24:40;;;;;;;7.65;3.10;;;10.40;74.40;;;;;;4189893;28;20024;-88
2022/11/04 03:26:53;;;;;;;7.82;3.17;;;10.30;74.50;;;;;;4196637;28;20020;-88
2022/11/04 03:29:02;;;;;;;7.10;3.17;;;10.40;74.70;;;;;;4184183;28;20281;-88
2022/11/04 03:31:08;;;;;;;11.43;3.42;;;10.30;74.60;;;;;;4183431;28;20021;-87
2022/11/04 03:33:43;;;;;;;10.88;3.70;;;10.30;74.70;;;;;;4185745;28;20079;-87
2022/11/04 03:35:43;;;;;;;9.18;3.33;;;10.30;75.00;;;;;;4187720;28;20064;-89
2022/11/04 03:37:47;;;;;;;7.50;2.72;;;10.50;74.90;;;;;;4204467;28;20076;-87
2022/11/04 03:39:48;;;;;;;6.97;3.22;;;10.30;74.90;;;;;;4171505;28;20029;-89
2022/11/04 03:41:54;;;;;;;9.45;3.15;;;10.30;75.00;;;;;;4186275;28;20083;-88
2022/11/04 03:43:55;;;;;;;8.73;3.25;;;10.30;75.10;;;;;;4186435;28;20032;-88
2022/11/04 03:45:56;;;;;;;8.77;3.05;;;10.30;75.20;;;;;;4184858;28;20082;-88
2022/11/04 03:47:59;;;;;;;10.75;3.40;;;10.30;75.40;;;;;;4172179;28;20033;-88
2022/11/04 03:50:10;;;;;;;9.40;3.20;;;10.40;75.60;;;;;;4171035;28;20035;-89
2022/11/04 03:52:11;;;;;;;6.13;3.28;;;10.30;75.40;;;;;;4182520;28;20587;-89
2022/11/04 03:54:20;;;;;;;8.30;3.58;;;10.50;75.60;;;;;;4181742;28;20056;-88
2022/11/04 03:56:43;;;;;;;7.43;3.47;;;10.30;75.60;;;;;;4186727;28;20033;-89
2022/11/04 03:59:06;;;;;;;;;;;10.30;75.60;;;;;;4183512;28;20033;-88
2022/11/04 04:01:30;;;;;;;10.80;3.47;;;10.30;76.10;;;;;;4182685;28;20519;-89
2022/11/04 04:04:00;;;;;;;9.73;4.07;;;10.30;76.20;;;;;;4184899;28;20032;-88
2022/11/04 04:06:30;;;;;;;7.65;3.45;;;10.30;75.50;;;;;;4186576;28;20163;-88
2022/11/04 04:09:13;;;;;;;7.50;4.15;;;10.30;75.70;;;;;;4186250;28;20436;-88
2022/11/04 04:11:50;;;;;;;9.32;4.00;;;10.30;76.10;;;;;;4182198;28;20078;-88
2022/11/04 04:14:38;;;;;;;8.93;4.55;;;10.50;76.10;;;;;;4186197;28;20656;-88
2022/11/04 04:17:01;;;;;;;11.48;4.10;;;10.30;76.00;;;;;;4186491;28;20040;-88
2022/11/04 04:19:23;;;;;;;9.68;4.18;;;10.30;75.90;;;;;;4184859;28;20731;-88
2022/11/04 04:22:09;;;;;;;6.85;3.95;;;10.40;76.10;;;;;;4184582;28;20037;-89
2022/11/04 04:27:30;;;;;;;9.07;4.13;;;10.30;76.20;;;;;;4189627;28;20374;-88
2022/11/04 04:29:52;;;;;;;11.38;4.15;;;10.30;76.20;;;;;;4187825;28;20032;-87
2022/11/04 04:32:14;;;;;;;8.93;4.45;;;10.50;76.40;;;;;;4200308;28;20025;-86
2022/11/04 04:34:35;;;;;;;9.30;4.32;;;10.40;76.40;;;;;;4186358;28;20028;-88
2022/11/04 04:37:07;;;;;;;12.90;4.22;;;10.30;76.40;;;;;;4179768;28;20451;-87
2022/11/04 04:45:02;;;;;;;10.57;4.20;;;10.40;76.60;;;;;;4181956;28;20462;-87
2022/11/04 04:47:25;;;;;;;16.67;4.32;;;10.30;76.50;;;;;;4184407;28;20036;-86
2022/11/04 04:49:59;;;;;;;9.63;4.30;;;10.40;76.70;;;;;;4183885;28;20052;-87
2022/11/04 04:52:21;;;;;;;;;;;10.40;76.90;;;;;;4188288;28;20037;-87
2022/11/04 04:54:41;;;;;;;9.45;4.57;;;10.40;77.00;;;;;;4194744;28;20575;-85
2022/11/04 04:56:48;;;;;;;11.68;4.72;;;10.40;76.40;;;;;;4180257;28;20135;-86
2022/11/04 04:59:09;;;;;;;10.13;3.83;;;10.50;76.60;;;;;;4183685;28;20028;-87
2022/11/04 05:01:29;;;;;;;10.20;4.60;;;10.50;76.70;;;;;;4185808;28;20488;-86
2022/11/04 05:03:50;;;;;;;7.38;4.18;;;10.50;76.80;;;;;;4182507;28;20619;-86
2022/11/04 05:06:11;;;;;;;7.28;4.13;;;10.40;76.80;;;;;;4189760;28;20481;-86
2022/11/04 05:08:31;;;;;;;11.70;4.82;;;10.40;76.90;;;;;;4193172;28;20100;-86
2022/11/04 05:10:52;;;;;;;8.15;4.45;;;10.40;76.90;;;;;;4190745;28;20021;-86
2022/11/04 05:13:26;;;;;;;11.05;4.53;;;10.40;76.90;;;;;;4185002;28;20036;-86
2022/11/04 05:15:46;;;;;;;15.05;4.35;;;10.40;77.10;;;;;;4180801;28;20673;-87
2022/11/04 05:18:22;;;;;;;8.45;4.50;;;10.40;77.00;;;;;;4179902;28;20033;-86
2022/11/04 05:20:43;;;;;;;10.98;4.80;;;10.40;77.30;;;;;;4180386;28;20159;-86
2022/11/04 05:23:04;;;;;;;9.25;4.47;;;10.50;77.10;;;;;;4178281;28;20111;-87
2022/11/04 05:25:25;;;;;;;10.10;4.28;;;10.40;77.10;;;;;;4184653;28;20098;-86
2022/11/04 05:27:45;;;;;;;11.02;5.38;;;10.40;77.10;;;;;;4182869;28;20025;-85
2022/11/04 05:30:06;;;;;;;10.93;4.30;;;10.50;77.20;;;;;;4185422;28;20033;-86
2022/11/04 05:32:07;;;;;;;11.35;4.65;;;10.40;77.20;;;;;;4197412;28;20024;-87
2022/11/04 05:34:12;;;;;;;9.43;5.00;;;10.40;77.30;;;;;;4195856;28;20036;-87
2022/11/04 05:36:14;;;;;;;7.60;4.70;;;10.40;77.30;;;;;;4186386;28;20967;-86
2022/11/04 05:38:18;;;;;;;10.38;5.20;;;10.40;77.40;;;;;;4177878;28;20511;-86
2022/11/04 05:40:18;;;;;;;10.82;4.82;;;10.40;77.50;;;;;;4178365;28;20039;-87
2022/11/04 05:42:19;;;;;;;9.00;4.65;;;10.40;77.50;;;;;;4166947;28;20037;-86
2022/11/04 05:44:20;;;;;;;8.73;4.47;;;10.50;77.60;;;;;;4178800;28;20020;-87
2022/11/04 05:46:22;;;;;;;11.52;4.75;;;10.50;77.60;;;;;;4181811;28;20041;-87
2022/11/04 05:48:22;;;;;;;17.15;5.38;;;10.50;77.60;;;;;;4165077;28;20029;-86
2022/11/04 05:50:24;;;;;;;13.35;5.68;;;10.50;77.70;;;;;;4184292;28;20198;-87
2022/11/04 05:52:24;;;;;;;14.32;5.80;;;10.60;77.70;;;;;;4180086;28;20040;-86
2022/11/04 05:54:25;;;;;;;17.02;5.57;;;10.50;77.60;;;;;;4183900;28;20024;-87
2022/11/04 05:56:26;;;;;;;8.85;4.70;;;10.50;78.40;;;;;;4188878;28;20036;-86
2022/11/04 05:58:27;;;;;;;10.18;5.05;;;10.60;77.90;;;;;;4191293;28;20067;-86
2022/11/04 06:00:28;;;;;;;9.82;5.07;;;10.50;77.70;;;;;;4186958;28;20024;-87
2022/11/04 06:02:28;;;;;;;8.93;4.80;;;10.60;77.70;;;;;;4186399;28;20036;-86
2022/11/04 06:04:29;;;;;;;9.60;4.75;;;10.70;77.80;;;;;;4186524;28;20036;-86
2022/11/04 06:06:33;;;;;;;10.45;5.53;;;10.60;77.80;;;;;;4182681;28;20072;-86
2022/11/04 06:08:33;;;;;;;13.02;5.85;;;10.70;77.70;;;;;;4183136;28;20037;-86
2022/11/04 06:10:34;;;;;;;11.65;6.10;;;10.60;77.80;;;;;;4193503;28;20033;-86
2022/11/04 06:12:34;;;;;;;12.77;5.43;;;10.60;77.80;;;;;;4176964;28;20023;-85
2022/11/04 06:14:36;;;;;;;13.73;5.05;;;10.60;77.80;;;;;;4193800;28;20047;-85
2022/11/04 06:16:36;;;;;;;12.13;4.25;;;10.70;77.80;;;;;;4189650;28;20029;-85
2022/11/04 06:18:37;;;;;;;13.25;5.32;;;10.60;77.80;;;;;;4207423;28;20024;-86
2022/11/04 06:20:38;;;;;;;7.90;3.83;;;10.60;77.70;;;;;;4193213;28;20064;-85
2022/11/04 06:22:38;;;;;;;6.60;3.70;;;10.60;77.60;;;;;;4195643;28;20033;-85
2022/11/04 06:24:39;;;;;;;15.90;4.00;;;10.60;77.60;;;;;;4193535;28;20029;-85
2022/11/04 06:26:41;;;;;;;10.38;3.60;;;10.70;77.60;;;;;;4193499;28;20587;-86
2022/11/04 06:28:42;;;;;;;6.95;3.08;;;10.60;77.50;;;;;;4170757;28;20039;-86
2022/11/04 06:30:42;;;;;;;11.15;3.35;;;10.70;77.60;;;;;;4192657;28;20056;-86
2022/11/04 06:32:43;;;;;;;4.68;2.53;;;10.70;77.50;;;;;;4195043;28;20523;-85
2022/11/04 06:34:44;;;;;;;4.93;2.75;;;10.70;77.50;;;;;;4193566;28;20281;-85
2022/11/04 06:36:45;;;;;;;5.68;2.45;;;10.80;77.50;;;;;;4198260;28;20080;-84
2022/11/04 06:38:46;;;;;;;5.10;2.55;;;10.70;77.50;;;;;;4204270;28;20033;-86
2022/11/04 06:40:46;;;;;;;4.97;2.35;;;10.70;77.50;;;;;;4188134;28;20032;-86
2022/11/04 06:42:48;;;;;;;6.72;2.30;;;10.70;77.40;;;;;;4190218;28;20418;-86
2022/11/04 06:44:49;;;;;;;5.15;1.80;;;10.70;77.40;;;;;;4190960;28;20120;-85
2022/11/04 06:46:50;;;;;;;8.00;1.90;;;10.80;77.40;;;;;;4191316;28;20095;-86
2022/11/04 06:48:51;;;;;;;4.85;2.08;;;10.80;77.30;;;;;;4193322;28;20119;-86
2022/11/04 06:50:52;;;;;;;6.10;1.90;;;10.70;77.20;;;;;;4190217;28;20036;-85
2022/11/04 06:52:53;;;;;;;5.47;1.80;;;10.80;77.30;;;;;;4190640;28;20075;-86
2022/11/04 06:54:54;;;;;;;3.17;1.45;;;10.80;77.20;;;;;;4190666;28;20025;-86
2022/11/04 06:56:54;;;;;;;3.30;1.65;;;10.80;77.20;;;;;;4192566;28;20104;-86
2022/11/04 06:58:55;;;;;;;6.13;1.60;;;10.70;77.10;;;;;;4193310;28;20134;-85
2022/11/04 07:00:56;;;;;;;2.60;1.20;;;10.70;77.00;;;;;;4192539;28;20036;-86
2022/11/04 07:02:57;;;;;;;4.10;1.38;;;10.70;77.00;;;;;;4189450;28;20044;-85
2022/11/04 07:04:59;;;;;;;5.07;1.40;;;10.70;76.80;;;;;;4175163;28;20028;-85
2022/11/04 07:07:20;;;;;;;5.63;1.35;;;10.70;76.80;;;;;;4189636;28;20029;-85
2022/11/04 07:09:40;;;;;;;2.42;0.85;;;10.70;76.70;;;;;;4190992;28;20036;-86
2022/11/04 07:11:43;;;;;;;3.17;1.02;;;10.70;76.60;;;;;;4190443;28;20115;-85
2022/11/04 07:14:04;;;;;;;2.10;0.90;;;10.70;76.60;;;;;;4190390;28;20032;-85
2022/11/04 07:16:25;;;;;;;1.98;0.80;;;10.70;76.50;;;;;;4188342;28;20097;-86
2022/11/04 07:18:48;;;;;;;0.95;0.63;;;10.70;76.40;;;;;;4192024;28;20047;-86
2022/11/04 07:21:09;;;;;;;3.65;1.05;;;10.80;76.40;;;;;;4192131;28;20043;-86
2022/11/04 07:23:30;;;;;;;1.85;0.80;;;10.80;76.40;;;;;;4189929;28;20137;-85
2022/11/04 07:25:52;;;;;;;3.08;1.10;;;10.70;76.40;;;;;;4188622;28;20059;-85
2022/11/04 07:28:13;;;;;;;11.50;1.05;;;10.70;76.30;;;;;;4189215;28;20040;-85
2022/11/04 07:30:26;;;;;;;2.53;0.80;;;10.80;76.40;;;;;;4191804;28;20104;-86
2022/11/04 07:32:47;;;;;;;2.05;0.70;;;10.70;76.30;;;;;;4189107;28;20064;-86
2022/11/04 07:35:08;;;;;;;3.53;1.13;;;10.80;76.50;;;;;;4190657;28;20043;-85
2022/11/04 07:37:25;;;;;;;7.47;0.70;;;10.60;76.30;;;;;;4192092;28;20458;-85
2022/11/04 07:39:45;;;;;;;7.78;0.95;;;10.60;76.30;;;;;;4189892;28;20029;-85
2022/11/04 07:42:07;;;;;;;4.13;0.88;;;10.70;76.30;;;;;;4192647;28;20032;-85
2022/11/04 07:44:27;;;;;;;10.35;1.08;;;10.60;76.30;;;;;;4196882;28;20025;-86
2022/11/04 07:46:48;;;;;;;7.53;0.82;;;10.80;76.40;;;;;;4192527;28;20024;-85
2022/11/04 07:49:10;;;;;;;5.13;1.27;;;10.70;76.40;;;;;;4193572;28;20040;-85
2022/11/04 07:51:31;;;;;;;3.97;0.85;;;10.70;76.50;;;;;;4192962;28;20028;-86
2022/11/04 07:53:53;;;;;;;4.63;0.70;;;10.70;76.50;;;;;;4191534;28;20154;-85
2022/11/04 07:56:14;;;;;;;6.57;0.70;;;10.60;76.60;;;;;;4189831;28;20036;-85
2022/11/04 07:58:16;;;;;;;4.25;0.70;;;10.60;76.60;;;;;;4191147;28;20048;-86
2022/11/04 08:00:17;;;;;;;4.38;0.70;;;10.60;76.70;;;;;;4189044;28;20032;-85
2022/11/04 08:02:18;;;;;;;3.13;0.80;;;10.60;76.70;;;;;;4187725;28;20016;-85
2022/11/04 08:04:19;;;;;;;4.65;0.85;;;10.60;76.90;;;;;;4190157;28;20643;-86
2022/11/04 08:06:20;;;;;;;4.22;0.45;;;10.60;76.90;;;;;;4189901;28;20437;-85
2022/11/04 08:08:21;;;;;;;8.60;0.88;;;10.60;76.90;;;;;;4203475;28;20039;-85
2022/11/04 08:10:22;;;;;;;5.72;1.15;;;10.60;77.10;;;;;;4193186;28;20400;-85
2022/11/04 08:12:23;;;;;;;4.88;0.60;;;10.60;77.00;;;;;;4191436;28;20036;-86
2022/11/04 08:14:23;;;;;;;4.30;0.85;;;10.70;77.20;;;;;;4189906;28;20024;-85
2022/11/04 08:16:24;;;;;;;9.07;0.85;;;10.70;77.20;;;;;;4192360;28;20560;-85
2022/11/04 08:18:25;;;;;;;10.65;1.13;;;10.70;77.20;;;;;;4191632;28;20488;-85
2022/11/04 08:20:25;;;;;;;7.60;0.90;;;10.80;77.30;;;;;;4190126;28;20115;-85
2022/11/04 08:22:26;;;;;;;6.22;1.17;;;10.60;77.30;;;;;;4188809;28;20040;-85
2022/11/04 08:24:27;;;;;;;4.25;0.60;;;10.60;77.30;;;;;;4190562;28;20416;-85
2022/11/04 08:26:28;;;;;;;4.90;0.85;;;10.70;77.30;;;;;;4187688;28;20036;-85
2022/11/04 08:28:28;;;;;;;6.55;0.93;;;10.70;77.40;;;;;;4187103;28;20396;-85
2022/11/04 08:30:29;;;;;;;10.98;1.00;;;10.60;77.40;;;;;;4187733;28;20390;-85
2022/11/04 08:32:30;;;;;;;16.45;1.33;;;10.60;77.40;;;;;;4185609;28;20076;-85
2022/11/04 08:34:30;;;;;;;14.93;1.35;;;10.60;77.60;;;;;;4184237;28;20025;-85
2022/11/04 08:36:35;;;;;;;9.93;1.15;;;10.70;77.60;;;;;;4188744;28;20025;-85
2022/11/04 08:38:37;;;;;;;10.02;1.38;;;10.60;77.50;;;;;;4187117;28;20044;-85
2022/11/04 08:40:37;;;;;;;8.38;1.10;;;10.80;77.70;;;;;;4186182;28;20067;-85
2022/11/04 08:42:38;;;;;;;5.72;1.20;;;10.80;77.70;;;;;;4183833;28;21984;-85
2022/11/04 08:44:39;;;;;;;8.70;1.20;;;10.70;77.60;;;;;;4190790;28;20039;-86
2022/11/04 08:46:41;;;;;;;12.82;1.42;;;10.60;77.50;;;;;;4189770;28;20027;-85
2022/11/04 08:48:42;;;;;;;8.00;1.17;;;10.70;77.50;;;;;;4184841;28;20037;-85
2022/11/04 08:50:48;;;;;;;13.00;1.50;;;10.70;77.50;;;;;;4188411;28;20056;-86
2022/11/04 08:52:49;;;;;;;12.25;1.35;;;10.70;77.60;;;;;;4189398;28;20020;-85
2022/11/04 08:54:53;;;;;;;13.82;1.20;;;10.70;77.60;;;;;;4184417;28;20025;-85
2022/11/04 08:56:54;;;;;;;12.50;2.33;;;10.70;77.80;;;;;;4186312;28;20033;-85
2022/11/04 08:58:57;;;;;;;8.68;1.35;;;10.80;77.70;;;;;;4189776;28;20033;-85
2022/11/04 09:01:03;;;;;;;11.10;1.23;;;10.80;77.70;;;;;;4186353;28;20036;-85
2022/11/04 09:03:04;;;;;;;14.18;1.15;;;10.70;77.80;;;;;;4185766;28;20043;-85
2022/11/04 09:05:05;;;;;;;11.60;1.25;;;10.80;77.70;;;;;;4192560;28;20051;-85
2022/11/04 09:07:06;;;;;;;12.77;1.35;;;10.70;77.70;;;;;;4188373;28;20516;-85
2022/11/04 09:09:10;;;;;;;8.52;1.30;;;10.70;77.80;;;;;;4190253;28;20119;-86
2022/11/04 09:11:13;;;;;;;14.73;1.20;;;10.70;77.80;;;;;;4189201;28;20255;-85
2022/11/04 09:13:15;;;;;;;10.88;1.33;;;10.70;77.60;;;;;;4191023;28;20043;-85
2022/11/04 09:15:15;;;;;;;16.30;1.50;;;10.80;77.80;;;;;;4192887;28;20021;-85
2022/11/04 09:17:16;;;;;;;17.30;2.17;;;10.80;77.70;;;;;;4190528;28;20030;-85
2022/11/04 09:19:17;;;;;;;11.07;1.45;;;10.80;77.70;;;;;;4191410;28;20033;-85
2022/11/04 09:21:18;;;;;;;7.63;1.20;;;10.80;77.50;;;;;;4176074;28;20075;-85
2022/11/04 09:23:19;;;;;;;7.03;1.23;;;11.00;77.50;;;;;;4169738;28;20029;-85
2022/11/04 09:25:19;;;;;;;15.90;2.30;;;10.80;77.40;;;;;;4199506;28;20040;-85
2022/11/04 09:27:20;;;;;;;12.90;1.40;;;10.90;77.50;;;;;;4189758;28;20024;-86
2022/11/04 09:29:22;;;;;;;14.30;1.60;;;10.90;77.40;;;;;;4188015;28;20036;-86
2022/11/04 09:31:28;;;;;;;8.68;1.80;;;10.90;77.40;;;;;;4193367;28;20029;-85
2022/11/04 09:33:28;;;;;;;9.63;1.30;;;10.90;77.30;;;;;;4186387;28;20025;-85
2022/11/04 09:35:29;;;;;;;9.18;1.50;;;10.90;77.30;;;;;;4192660;28;20024;-86
2022/11/04 09:37:30;;;;;;;8.05;1.15;;;11.00;77.40;;;;;;4191250;28;20059;-85
2022/11/04 09:39:31;;;;;;;11.50;1.55;;;11.00;77.30;;;;;;4204107;28;20038;-85
2022/11/04 09:41:55;;;;;;;9.88;1.45;;;11.00;77.30;;;;;;4196471;28;20044;-86
2022/11/04 09:44:15;;;;;;;11.30;1.50;;;11.20;77.20;;;;;;4189602;28;20024;-86
2022/11/04 09:46:15;;;;;;;12.65;1.67;;;11.00;76.70;;;;;;4192167;28;20074;-85
2022/11/04 09:48:33;;;;;;;9.27;1.63;;;11.00;76.70;;;;;;4188756;28;20033;-86
2022/11/04 09:50:49;;;;;;;19.80;1.88;;;11.10;76.70;;;;;;4188598;28;20029;-85
2022/11/04 09:52:57;;;;;;;18.98;2.20;;;11.10;76.60;;;;;;4189126;28;20021;-85
2022/11/04 09:55:19;;;;;;;8.65;2.17;;;11.10;76.40;;;;;;4192447;28;20055;-85
2022/11/04 09:57:20;;;;;;;12.52;1.92;;;11.10;75.80;;;;;;4186473;28;20218;-85
2022/11/04 09:59:33;;;;;;;17.63;2.70;;;11.20;75.70;;;;;;4190521;28;20392;-85
2022/11/04 10:02:00;;;;;;;16.70;1.85;;;11.20;75.30;;;;;;4193013;28;20455;-86
2022/11/04 10:04:31;;;;;;;11.63;1.50;;;11.20;74.90;;;;;;4170442;28;20045;-86
2022/11/04 10:07:03;;;;;;;18.13;2.38;;;11.20;74.50;;;;;;4187790;28;20420;-86
2022/11/04 10:09:11;;;;;;;11.88;1.70;;;11.20;74.20;;;;;;4179409;28;20067;-86
2022/11/04 10:11:33;;;;;;;17.95;2.05;;;11.40;74.40;;;;;;4186505;28;20563;-85
2022/11/04 10:14:09;;;;;;;12.55;1.50;;;11.30;73.80;;;;;;4188403;28;20396;-84
2022/11/04 10:16:39;;;;;;;11.02;1.73;;;11.30;72.60;;;;;;4191240;28;20025;-85
2022/11/04 10:19:18;;;;;;;10.13;1.48;;;11.30;73.00;;;;;;4189617;28;20390;-86
2022/11/04 10:21:57;;;;;;;7.60;1.23;;;11.30;72.60;;;;;;4193044;28;20051;-85
2022/11/04 10:24:27;;;;;;;22.40;1.73;;;11.30;72.30;;;;;;4188477;28;20108;-86
2022/11/04 10:26:39;;;;;;;22.85;2.05;;;11.40;72.00;;;;;;4191955;28;20045;-85
2022/11/04 10:28:44;;;;;;;15.02;1.60;;;11.40;71.40;;;;;;4190643;28;20031;-85
2022/11/04 10:30:49;;;;;;;11.95;1.77;;;11.40;70.90;;;;;;4189925;28;20496;-86
2022/11/04 10:33:02;;;;;;;15.55;1.77;;;11.40;70.40;;;;;;4189809;28;20446;-86
2022/11/04 10:35:27;;;;;;;14.57;1.80;;;11.40;70.30;;;;;;4193922;28;20483;-86
2022/11/04 10:37:28;;;;;;;13.43;1.63;;;11.40;69.90;;;;;;4188384;28;20025;-86
2022/11/04 10:39:33;;;;;;;11.80;2.15;;;11.50;70.30;;;;;;4190726;28;20666;-86
2022/11/04 10:41:38;;;;;;;8.10;1.50;;;11.50;69.80;;;;;;4189057;28;20043;-86
2022/11/04 10:43:40;;;;;;;19.63;2.10;;;11.50;69.30;;;;;;4184279;28;20025;-86
2022/11/04 10:45:58;;;;;;;13.18;1.67;;;11.60;69.50;;;;;;4191848;28;20417;-85
2022/11/04 10:48:13;;;;;;;11.02;1.58;;;11.50;69.10;;;;;;4186165;28;20031;-85
2022/11/04 10:50:33;;;;;;;11.93;1.90;;;11.50;69.20;;;;;;4188751;28;20509;-86
2022/11/04 10:52:36;;;;;;;18.17;2.20;;;11.50;69.30;;;;;;4190023;28;20539;-86
2022/11/04 10:54:43;;;;;;;9.73;1.52;;;11.60;69.40;;;;;;4186083;28;20516;-86
2022/11/04 10:56:50;;;;;;;15.05;2.20;;;11.60;69.40;;;;;;4185096;28;20595;-85
2022/11/04 10:58:54;;;;;;;9.40;1.52;;;11.60;69.20;;;;;;4188739;28;20158;-86
2022/11/04 11:00:56;;;;;;;12.02;1.50;;;11.70;69.40;;;;;;4187750;28;20033;-85
2022/11/04 11:02:57;;;;;;;10.45;1.60;;;11.70;69.20;;;;;;4186201;28;20032;-86
2022/11/04 11:05:18;;;;;;;10.57;1.70;;;11.80;69.20;;;;;;4183812;28;20068;-85
2022/11/04 11:07:21;;;;;;;17.80;1.67;;;11.70;68.40;;;;;;4187821;28;20402;-86
2022/11/04 11:09:32;;;;;;;15.25;1.45;;;11.70;68.80;;;;;;4186648;28;20505;-86
2022/11/04 11:11:49;;;;;;;10.70;1.35;;;11.90;68.50;;;;;;4205736;28;20029;-85
2022/11/04 11:13:50;;;;;;;7.68;1.35;;;11.80;68.10;;;;;;4189733;28;20028;-86
2022/11/04 11:16:32;;;;;;;12.05;1.63;;;11.80;68.10;;;;;;4193718;28;20078;-86
2022/11/04 11:18:36;;;;;;;13.98;1.65;;;11.80;67.30;;;;;;4187966;28;20044;-86
2022/11/04 11:20:37;;;;;;;12.13;1.45;;;11.80;67.60;;;;;;4193285;28;20496;-86
2022/11/04 11:22:40;;;;;;;11.55;1.60;;;11.90;67.80;;;;;;4189904;28;20099;-86
2022/11/04 11:24:40;;;;;;;9.48;1.20;;;11.90;67.80;;;;;;4195206;28;20112;-86
2022/11/04 11:26:47;;;;;;;7.18;1.27;;;11.90;67.80;;;;;;4189625;28;20029;-85
2022/11/04 11:28:55;;;;;;;9.55;1.75;;;12.00;67.80;;;;;;4188322;28;20024;-86
2022/11/04 11:31:07;;;;;;;11.48;1.30;;;11.90;67.60;;;;;;4188923;28;20052;-86
2022/11/04 11:33:26;;;;;;;10.27;1.52;;;12.00;66.40;;;;;;4170952;28;20036;-85
2022/11/04 11:35:31;;;;;;;8.85;1.50;;;12.00;65.90;;;;;;4189786;28;20841;-85
2022/11/04 11:37:32;;;;;;;8.30;1.00;;;12.00;65.80;;;;;;4171153;28;20021;-86
2022/11/04 11:39:34;;;;;;;7.57;1.10;;;12.00;65.50;;;;;;4185302;28;20635;-86